sensor_id;sensor_type;location;lat;lon;timestamp;P1;durP1;ratioP1;P2;durP2;ratioP2
40599;SDS011;26309;50.924;4.754;2022-12-07T00:02:05;22.03;;;17.10;;
40599;SDS011;26309;50.924;4.754;2022-12-07T00:04:31;27.57;;;17.07;;
40599;SDS011;26309;50.924;4.754;2022-12-07T00:06:57;26.17;;;18.60;;
40599;SDS011;26309;50.924;4.754;2022-12-07T00:09:22;29.00;;;19.30;;
40599;SDS011;26309;50.924;4.754;2022-12-07T00:11:51;24.33;;;17.70;;
40599;SDS011;26309;50.924;4.754;2022-12-07T00:14:18;27.43;;;17.77;;
40599;SDS011;26309;50.924;4.754;2022-12-07T00:16:44;24.47;;;17.30;;
40599;SDS011;26309;50.924;4.754;2022-12-07T00:19:11;24.57;;;17.80;;
40599;SDS011;26309;50.924;4.754;2022-12-07T00:21:38;29.00;;;16.07;;
40599;SDS011;26309;50.924;4.754;2022-12-07T00:24:05;27.97;;;18.57;;
40599;SDS011;26309;50.924;4.754;2022-12-07T00:26:32;28.37;;;18.10;;
40599;SDS011;26309;50.924;4.754;2022-12-07T00:29:04;23.80;;;18.63;;
40599;SDS011;26309;50.924;4.754;2022-12-07T00:31:37;31.67;;;18.03;;
40599;SDS011;26309;50.924;4.754;2022-12-07T00:34:04;23.87;;;17.13;;
40599;SDS011;26309;50.924;4.754;2022-12-07T00:36:31;26.57;;;17.30;;
40599;SDS011;26309;50.924;4.754;2022-12-07T00:38:57;28.57;;;17.67;;
40599;SDS011;26309;50.924;4.754;2022-12-07T00:41:25;27.37;;;17.77;;
40599;SDS011;26309;50.924;4.754;2022-12-07T00:43:52;28.77;;;19.33;;
40599;SDS011;26309;50.924;4.754;2022-12-07T00:46:19;24.27;;;18.07;;
40599;SDS011;26309;50.924;4.754;2022-12-07T00:48:46;26.77;;;19.00;;
40599;SDS011;26309;50.924;4.754;2022-12-07T00:51:13;25.47;;;18.53;;
40599;SDS011;26309;50.924;4.754;2022-12-07T00:53:40;26.47;;;18.93;;
40599;SDS011;26309;50.924;4.754;2022-12-07T00:56:07;29.23;;;19.27;;
40599;SDS011;26309;50.924;4.754;2022-12-07T00:58:34;26.97;;;19.47;;
40599;SDS011;26309;50.924;4.754;2022-12-07T01:01:01;25.77;;;18.30;;
40599;SDS011;26309;50.924;4.754;2022-12-07T01:03:27;24.57;;;18.50;;
40599;SDS011;26309;50.924;4.754;2022-12-07T01:05:54;28.17;;;18.70;;
40599;SDS011;26309;50.924;4.754;2022-12-07T01:08:21;29.47;;;19.03;;
40599;SDS011;26309;50.924;4.754;2022-12-07T01:10:48;26.30;;;18.97;;
40599;SDS011;26309;50.924;4.754;2022-12-07T01:13:14;27.70;;;19.13;;
40599;SDS011;26309;50.924;4.754;2022-12-07T01:15:41;26.23;;;20.07;;
40599;SDS011;26309;50.924;4.754;2022-12-07T01:18:08;27.87;;;17.00;;
40599;SDS011;26309;50.924;4.754;2022-12-07T01:20:34;24.27;;;17.67;;
40599;SDS011;26309;50.924;4.754;2022-12-07T01:23:00;30.13;;;18.77;;
40599;SDS011;26309;50.924;4.754;2022-12-07T01:25:27;28.63;;;19.43;;
40599;SDS011;26309;50.924;4.754;2022-12-07T01:27:52;28.20;;;18.83;;
40599;SDS011;26309;50.924;4.754;2022-12-07T01:30:18;28.37;;;19.43;;
40599;SDS011;26309;50.924;4.754;2022-12-07T01:32:44;34.03;;;23.30;;
40599;SDS011;26309;50.924;4.754;2022-12-07T01:35:11;34.60;;;22.20;;
40599;SDS011;26309;50.924;4.754;2022-12-07T01:37:37;38.47;;;23.03;;
40599;SDS011;26309;50.924;4.754;2022-12-07T01:40:05;33.87;;;23.37;;
40599;SDS011;26309;50.924;4.754;2022-12-07T01:42:33;27.40;;;20.70;;
40599;SDS011;26309;50.924;4.754;2022-12-07T01:47:48;31.27;;;21.70;;
40599;SDS011;26309;50.924;4.754;2022-12-07T01:50:19;29.90;;;18.73;;
40599;SDS011;26309;50.924;4.754;2022-12-07T01:52:47;31.53;;;20.73;;
40599;SDS011;26309;50.924;4.754;2022-12-07T01:55:15;32.67;;;22.23;;
40599;SDS011;26309;50.924;4.754;2022-12-07T01:57:43;33.40;;;21.87;;
40599;SDS011;26309;50.924;4.754;2022-12-07T02:00:13;31.03;;;20.27;;
40599;SDS011;26309;50.924;4.754;2022-12-07T02:05:26;28.03;;;20.60;;
40599;SDS011;26309;50.924;4.754;2022-12-07T02:07:53;33.20;;;21.90;;
40599;SDS011;26309;50.924;4.754;2022-12-07T02:10:23;37.80;;;23.10;;
40599;SDS011;26309;50.924;4.754;2022-12-07T02:13:08;34.60;;;23.17;;
40599;SDS011;26309;50.924;4.754;2022-12-07T02:18:12;36.70;;;21.40;;
40599;SDS011;26309;50.924;4.754;2022-12-07T02:29:45;30.90;;;22.37;;
40599;SDS011;26309;50.924;4.754;2022-12-07T02:32:17;30.27;;;21.80;;
40599;SDS011;26309;50.924;4.754;2022-12-07T02:35:11;31.30;;;21.67;;
40599;SDS011;26309;50.924;4.754;2022-12-07T02:40:26;36.00;;;22.73;;
40599;SDS011;26309;50.924;4.754;2022-12-07T02:43:24;35.60;;;21.83;;
40599;SDS011;26309;50.924;4.754;2022-12-07T02:45:55;28.40;;;20.73;;
40599;SDS011;26309;50.924;4.754;2022-12-07T02:48:24;34.83;;;22.83;;
40599;SDS011;26309;50.924;4.754;2022-12-07T02:50:53;39.03;;;22.47;;
40599;SDS011;26309;50.924;4.754;2022-12-07T03:01:41;31.00;;;23.13;;
40599;SDS011;26309;50.924;4.754;2022-12-07T03:04:23;32.27;;;22.17;;
40599;SDS011;26309;50.924;4.754;2022-12-07T03:13:09;33.97;;;23.53;;
40599;SDS011;26309;50.924;4.754;2022-12-07T03:15:44;37.53;;;23.20;;
40599;SDS011;26309;50.924;4.754;2022-12-07T03:18:16;34.37;;;23.20;;
40599;SDS011;26309;50.924;4.754;2022-12-07T03:20:47;31.53;;;22.90;;
40599;SDS011;26309;50.924;4.754;2022-12-07T03:23:15;29.03;;;22.13;;
40599;SDS011;26309;50.924;4.754;2022-12-07T03:25:45;33.07;;;22.53;;
40599;SDS011;26309;50.924;4.754;2022-12-07T03:28:13;29.07;;;21.17;;
40599;SDS011;26309;50.924;4.754;2022-12-07T03:30:45;28.23;;;21.23;;
40599;SDS011;26309;50.924;4.754;2022-12-07T03:36:25;36.83;;;22.63;;
40599;SDS011;26309;50.924;4.754;2022-12-07T03:41:54;32.17;;;22.70;;
40599;SDS011;26309;50.924;4.754;2022-12-07T03:44:21;34.37;;;21.03;;
40599;SDS011;26309;50.924;4.754;2022-12-07T03:46:50;29.00;;;21.47;;
40599;SDS011;26309;50.924;4.754;2022-12-07T03:49:26;37.07;;;22.60;;
40599;SDS011;26309;50.924;4.754;2022-12-07T03:57:02;32.87;;;23.07;;
40599;SDS011;26309;50.924;4.754;2022-12-07T03:59:29;31.37;;;23.47;;
40599;SDS011;26309;50.924;4.754;2022-12-07T04:01:56;35.47;;;24.50;;
40599;SDS011;26309;50.924;4.754;2022-12-07T04:04:26;32.13;;;23.03;;
40599;SDS011;26309;50.924;4.754;2022-12-07T04:06:53;30.23;;;22.83;;
40599;SDS011;26309;50.924;4.754;2022-12-07T04:09:19;32.73;;;23.07;;
40599;SDS011;26309;50.924;4.754;2022-12-07T04:11:45;30.60;;;22.23;;
40599;SDS011;26309;50.924;4.754;2022-12-07T04:14:11;30.53;;;21.00;;
40599;SDS011;26309;50.924;4.754;2022-12-07T04:16:55;30.53;;;21.20;;
40599;SDS011;26309;50.924;4.754;2022-12-07T04:19:23;28.53;;;19.37;;
40599;SDS011;26309;50.924;4.754;2022-12-07T04:21:52;30.13;;;20.73;;
40599;SDS011;26309;50.924;4.754;2022-12-07T04:24:19;33.87;;;20.47;;
40599;SDS011;26309;50.924;4.754;2022-12-07T04:26:45;28.20;;;19.40;;
40599;SDS011;26309;50.924;4.754;2022-12-07T04:29:11;35.50;;;19.33;;
40599;SDS011;26309;50.924;4.754;2022-12-07T04:31:38;29.30;;;20.60;;
40599;SDS011;26309;50.924;4.754;2022-12-07T04:34:04;26.03;;;19.37;;
40599;SDS011;26309;50.924;4.754;2022-12-07T04:36:31;27.90;;;21.13;;
40599;SDS011;26309;50.924;4.754;2022-12-07T04:38:57;50.27;;;21.07;;
40599;SDS011;26309;50.924;4.754;2022-12-07T04:41:24;33.57;;;21.77;;
40599;SDS011;26309;50.924;4.754;2022-12-07T04:43:57;44.90;;;19.63;;
40599;SDS011;26309;50.924;4.754;2022-12-07T04:46:25;31.23;;;20.60;;
40599;SDS011;26309;50.924;4.754;2022-12-07T04:48:52;43.67;;;20.07;;
40599;SDS011;26309;50.924;4.754;2022-12-07T04:51:23;43.10;;;20.13;;
40599;SDS011;26309;50.924;4.754;2022-12-07T04:53:51;31.07;;;19.70;;
40599;SDS011;26309;50.924;4.754;2022-12-07T04:56:18;27.90;;;19.37;;
40599;SDS011;26309;50.924;4.754;2022-12-07T04:58:44;30.17;;;18.13;;
40599;SDS011;26309;50.924;4.754;2022-12-07T05:01:11;27.03;;;19.80;;
40599;SDS011;26309;50.924;4.754;2022-12-07T05:03:38;30.43;;;20.27;;
40599;SDS011;26309;50.924;4.754;2022-12-07T05:06:04;29.77;;;19.83;;
40599;SDS011;26309;50.924;4.754;2022-12-07T05:08:31;29.33;;;17.97;;
40599;SDS011;26309;50.924;4.754;2022-12-07T05:10:58;27.10;;;18.73;;
40599;SDS011;26309;50.924;4.754;2022-12-07T05:13:24;29.60;;;19.07;;
40599;SDS011;26309;50.924;4.754;2022-12-07T05:15:50;29.37;;;20.03;;
40599;SDS011;26309;50.924;4.754;2022-12-07T05:18:16;35.10;;;18.27;;
40599;SDS011;26309;50.924;4.754;2022-12-07T05:20:42;39.90;;;20.13;;
40599;SDS011;26309;50.924;4.754;2022-12-07T05:23:09;27.43;;;19.37;;
40599;SDS011;26309;50.924;4.754;2022-12-07T05:25:35;28.07;;;21.03;;
40599;SDS011;26309;50.924;4.754;2022-12-07T05:28:01;32.47;;;20.63;;
40599;SDS011;26309;50.924;4.754;2022-12-07T05:30:28;32.97;;;21.30;;
40599;SDS011;26309;50.924;4.754;2022-12-07T05:32:54;29.50;;;19.67;;
40599;SDS011;26309;50.924;4.754;2022-12-07T05:35:20;31.97;;;20.17;;
40599;SDS011;26309;50.924;4.754;2022-12-07T05:37:46;26.77;;;19.63;;
40599;SDS011;26309;50.924;4.754;2022-12-07T05:40:13;30.60;;;19.90;;
40599;SDS011;26309;50.924;4.754;2022-12-07T05:42:40;27.20;;;19.97;;
40599;SDS011;26309;50.924;4.754;2022-12-07T05:45:06;31.17;;;20.30;;
40599;SDS011;26309;50.924;4.754;2022-12-07T05:47:34;34.47;;;21.13;;
40599;SDS011;26309;50.924;4.754;2022-12-07T05:50:00;30.57;;;21.60;;
40599;SDS011;26309;50.924;4.754;2022-12-07T05:52:27;29.83;;;19.70;;
40599;SDS011;26309;50.924;4.754;2022-12-07T05:54:52;30.40;;;20.00;;
40599;SDS011;26309;50.924;4.754;2022-12-07T05:57:18;35.77;;;19.50;;
40599;SDS011;26309;50.924;4.754;2022-12-07T05:59:44;30.23;;;18.77;;
40599;SDS011;26309;50.924;4.754;2022-12-07T06:02:11;27.67;;;19.63;;
40599;SDS011;26309;50.924;4.754;2022-12-07T06:04:40;29.70;;;18.97;;
40599;SDS011;26309;50.924;4.754;2022-12-07T06:07:11;31.73;;;19.00;;
40599;SDS011;26309;50.924;4.754;2022-12-07T06:09:38;27.97;;;18.43;;
40599;SDS011;26309;50.924;4.754;2022-12-07T06:12:04;28.50;;;18.03;;
40599;SDS011;26309;50.924;4.754;2022-12-07T06:14:49;26.07;;;17.60;;
40599;SDS011;26309;50.924;4.754;2022-12-07T06:17:14;27.70;;;16.87;;
40599;SDS011;26309;50.924;4.754;2022-12-07T06:19:41;27.50;;;17.37;;
40599;SDS011;26309;50.924;4.754;2022-12-07T06:22:07;24.13;;;17.87;;
40599;SDS011;26309;50.924;4.754;2022-12-07T06:24:34;30.47;;;17.67;;
40599;SDS011;26309;50.924;4.754;2022-12-07T06:27:00;23.50;;;16.27;;
40599;SDS011;26309;50.924;4.754;2022-12-07T06:29:30;24.37;;;18.30;;
40599;SDS011;26309;50.924;4.754;2022-12-07T06:31:56;32.83;;;18.43;;
40599;SDS011;26309;50.924;4.754;2022-12-07T06:34:22;23.60;;;16.60;;
40599;SDS011;26309;50.924;4.754;2022-12-07T06:36:49;26.70;;;17.73;;
40599;SDS011;26309;50.924;4.754;2022-12-07T06:39:18;25.03;;;17.53;;
40599;SDS011;26309;50.924;4.754;2022-12-07T06:41:45;27.70;;;16.17;;
40599;SDS011;26309;50.924;4.754;2022-12-07T06:44:11;24.77;;;17.20;;
40599;SDS011;26309;50.924;4.754;2022-12-07T06:46:37;27.37;;;16.47;;
40599;SDS011;26309;50.924;4.754;2022-12-07T06:49:03;24.03;;;15.97;;
40599;SDS011;26309;50.924;4.754;2022-12-07T06:51:31;23.23;;;16.90;;
40599;SDS011;26309;50.924;4.754;2022-12-07T06:53:57;25.67;;;17.23;;
40599;SDS011;26309;50.924;4.754;2022-12-07T06:56:23;25.57;;;17.20;;
40599;SDS011;26309;50.924;4.754;2022-12-07T06:58:49;26.07;;;16.53;;
40599;SDS011;26309;50.924;4.754;2022-12-07T07:01:16;22.33;;;16.57;;
40599;SDS011;26309;50.924;4.754;2022-12-07T07:03:43;24.90;;;17.27;;
40599;SDS011;26309;50.924;4.754;2022-12-07T07:06:11;24.60;;;16.33;;
40599;SDS011;26309;50.924;4.754;2022-12-07T07:08:38;25.27;;;16.53;;
40599;SDS011;26309;50.924;4.754;2022-12-07T07:11:05;27.43;;;16.93;;
40599;SDS011;26309;50.924;4.754;2022-12-07T07:13:32;26.17;;;17.30;;
40599;SDS011;26309;50.924;4.754;2022-12-07T07:15:58;23.23;;;16.97;;
40599;SDS011;26309;50.924;4.754;2022-12-07T07:18:24;23.77;;;15.50;;
40599;SDS011;26309;50.924;4.754;2022-12-07T07:20:51;23.27;;;15.93;;
40599;SDS011;26309;50.924;4.754;2022-12-07T07:23:17;24.07;;;16.50;;
40599;SDS011;26309;50.924;4.754;2022-12-07T07:25:44;36.57;;;25.30;;
40599;SDS011;26309;50.924;4.754;2022-12-07T07:28:10;27.03;;;17.43;;
40599;SDS011;26309;50.924;4.754;2022-12-07T07:30:36;27.00;;;17.47;;
40599;SDS011;26309;50.924;4.754;2022-12-07T07:33:03;33.40;;;20.50;;
40599;SDS011;26309;50.924;4.754;2022-12-07T07:35:29;27.03;;;19.23;;
40599;SDS011;26309;50.924;4.754;2022-12-07T07:37:57;33.20;;;18.37;;
40599;SDS011;26309;50.924;4.754;2022-12-07T07:40:23;26.00;;;17.20;;
40599;SDS011;26309;50.924;4.754;2022-12-07T07:42:49;25.77;;;16.37;;
40599;SDS011;26309;50.924;4.754;2022-12-07T07:45:17;22.30;;;16.47;;
40599;SDS011;26309;50.924;4.754;2022-12-07T07:47:43;22.07;;;16.40;;
40599;SDS011;26309;50.924;4.754;2022-12-07T07:50:09;25.63;;;17.30;;
40599;SDS011;26309;50.924;4.754;2022-12-07T07:52:35;25.33;;;16.00;;
40599;SDS011;26309;50.924;4.754;2022-12-07T07:55:01;24.87;;;15.97;;
40599;SDS011;26309;50.924;4.754;2022-12-07T07:57:27;25.53;;;15.33;;
40599;SDS011;26309;50.924;4.754;2022-12-07T07:59:54;29.13;;;16.87;;
40599;SDS011;26309;50.924;4.754;2022-12-07T08:02:20;22.93;;;15.87;;
40599;SDS011;26309;50.924;4.754;2022-12-07T08:04:47;24.13;;;15.80;;
40599;SDS011;26309;50.924;4.754;2022-12-07T08:07:13;24.80;;;15.53;;
40599;SDS011;26309;50.924;4.754;2022-12-07T08:09:40;21.17;;;14.97;;
40599;SDS011;26309;50.924;4.754;2022-12-07T08:12:06;24.33;;;15.87;;
40599;SDS011;26309;50.924;4.754;2022-12-07T08:14:33;27.60;;;15.23;;
40599;SDS011;26309;50.924;4.754;2022-12-07T08:16:59;49.03;;;14.47;;
40599;SDS011;26309;50.924;4.754;2022-12-07T08:19:25;34.73;;;15.83;;
40599;SDS011;26309;50.924;4.754;2022-12-07T08:21:51;23.43;;;14.60;;
40599;SDS011;26309;50.924;4.754;2022-12-07T08:24:17;27.20;;;14.73;;
40599;SDS011;26309;50.924;4.754;2022-12-07T08:26:43;28.60;;;16.60;;
40599;SDS011;26309;50.924;4.754;2022-12-07T08:29:09;26.13;;;16.33;;
40599;SDS011;26309;50.924;4.754;2022-12-07T08:31:35;25.10;;;15.87;;
40599;SDS011;26309;50.924;4.754;2022-12-07T08:34:01;26.10;;;15.83;;
40599;SDS011;26309;50.924;4.754;2022-12-07T08:36:27;32.37;;;17.10;;
40599;SDS011;26309;50.924;4.754;2022-12-07T08:38:54;32.03;;;16.43;;
40599;SDS011;26309;50.924;4.754;2022-12-07T08:41:20;26.17;;;16.00;;
40599;SDS011;26309;50.924;4.754;2022-12-07T08:43:45;31.97;;;16.07;;
40599;SDS011;26309;50.924;4.754;2022-12-07T08:51:17;26.23;;;16.27;;
40599;SDS011;26309;50.924;4.754;2022-12-07T08:53:44;24.10;;;15.50;;
40599;SDS011;26309;50.924;4.754;2022-12-07T08:56:11;23.83;;;15.97;;
40599;SDS011;26309;50.924;4.754;2022-12-07T08:58:37;22.40;;;16.27;;
40599;SDS011;26309;50.924;4.754;2022-12-07T09:01:05;19.73;;;15.40;;
40599;SDS011;26309;50.924;4.754;2022-12-07T09:03:31;21.43;;;15.07;;
40599;SDS011;26309;50.924;4.754;2022-12-07T09:05:57;27.87;;;14.70;;
40599;SDS011;26309;50.924;4.754;2022-12-07T09:08:26;22.87;;;14.87;;
40599;SDS011;26309;50.924;4.754;2022-12-07T09:11:02;25.40;;;14.63;;
40599;SDS011;26309;50.924;4.754;2022-12-07T09:13:30;22.17;;;14.10;;
40599;SDS011;26309;50.924;4.754;2022-12-07T09:15:56;23.90;;;14.27;;
40599;SDS011;26309;50.924;4.754;2022-12-07T09:18:22;24.87;;;15.07;;
40599;SDS011;26309;50.924;4.754;2022-12-07T09:20:50;27.50;;;16.40;;
40599;SDS011;26309;50.924;4.754;2022-12-07T09:23:16;22.10;;;15.00;;
40599;SDS011;26309;50.924;4.754;2022-12-07T09:25:42;23.20;;;14.67;;
40599;SDS011;26309;50.924;4.754;2022-12-07T09:28:08;25.87;;;13.87;;
40599;SDS011;26309;50.924;4.754;2022-12-07T09:30:34;22.43;;;13.67;;
40599;SDS011;26309;50.924;4.754;2022-12-07T09:33:01;24.73;;;13.50;;
40599;SDS011;26309;50.924;4.754;2022-12-07T09:35:27;26.03;;;15.70;;
40599;SDS011;26309;50.924;4.754;2022-12-07T09:37:54;25.80;;;13.73;;
40599;SDS011;26309;50.924;4.754;2022-12-07T09:40:20;22.57;;;14.07;;
40599;SDS011;26309;50.924;4.754;2022-12-07T09:42:48;20.37;;;13.40;;
40599;SDS011;26309;50.924;4.754;2022-12-07T09:45:27;20.77;;;13.13;;
40599;SDS011;26309;50.924;4.754;2022-12-07T09:48:00;20.07;;;13.67;;
40599;SDS011;26309;50.924;4.754;2022-12-07T09:50:28;24.60;;;14.47;;
40599;SDS011;26309;50.924;4.754;2022-12-07T09:52:55;20.57;;;12.40;;
40599;SDS011;26309;50.924;4.754;2022-12-07T09:55:38;20.13;;;12.17;;
40599;SDS011;26309;50.924;4.754;2022-12-07T09:58:08;19.97;;;10.67;;
40599;SDS011;26309;50.924;4.754;2022-12-07T10:00:48;16.23;;;10.90;;
40599;SDS011;26309;50.924;4.754;2022-12-07T10:03:15;21.23;;;10.63;;
40599;SDS011;26309;50.924;4.754;2022-12-07T10:05:46;17.70;;;10.03;;
40599;SDS011;26309;50.924;4.754;2022-12-07T10:08:15;15.27;;;9.90;;
40599;SDS011;26309;50.924;4.754;2022-12-07T10:10:43;15.37;;;8.73;;
40599;SDS011;26309;50.924;4.754;2022-12-07T10:18:27;16.20;;;9.20;;
40599;SDS011;26309;50.924;4.754;2022-12-07T10:21:02;12.27;;;9.20;;
40599;SDS011;26309;50.924;4.754;2022-12-07T10:23:32;16.40;;;8.57;;
40599;SDS011;26309;50.924;4.754;2022-12-07T10:26:03;13.50;;;8.77;;
40599;SDS011;26309;50.924;4.754;2022-12-07T10:29:02;15.77;;;7.83;;
40599;SDS011;26309;50.924;4.754;2022-12-07T10:31:41;20.77;;;8.90;;
40599;SDS011;26309;50.924;4.754;2022-12-07T10:34:25;14.50;;;8.20;;
40599;SDS011;26309;50.924;4.754;2022-12-07T10:39:52;10.87;;;7.00;;
40599;SDS011;26309;50.924;4.754;2022-12-07T10:42:29;11.80;;;6.37;;
40599;SDS011;26309;50.924;4.754;2022-12-07T10:56:37;12.27;;;6.13;;
40599;SDS011;26309;50.924;4.754;2022-12-07T11:19:39;11.90;;;6.93;;
40599;SDS011;26309;50.924;4.754;2022-12-07T11:33:40;14.47;;;7.17;;
40599;SDS011;26309;50.924;4.754;2022-12-07T11:39:04;14.57;;;7.03;;
40599;SDS011;26309;50.924;4.754;2022-12-07T11:41:46;9.93;;;6.50;;
40599;SDS011;26309;50.924;4.754;2022-12-07T11:47:17;13.90;;;6.47;;
40599;SDS011;26309;50.924;4.754;2022-12-07T11:49:56;11.53;;;6.63;;
40599;SDS011;26309;50.924;4.754;2022-12-07T11:53:26;14.57;;;6.77;;
40599;SDS011;26309;50.924;4.754;2022-12-07T11:55:39;11.60;;;6.60;;
40599;SDS011;26309;50.924;4.754;2022-12-07T12:03:45;11.77;;;6.07;;
40599;SDS011;26309;50.924;4.754;2022-12-07T12:06:13;11.47;;;5.63;;
40599;SDS011;26309;50.924;4.754;2022-12-07T12:08:41;11.00;;;5.67;;
40599;SDS011;26309;50.924;4.754;2022-12-07T12:17:00;15.10;;;6.77;;
40599;SDS011;26309;50.924;4.754;2022-12-07T12:19:33;15.37;;;6.80;;
40599;SDS011;26309;50.924;4.754;2022-12-07T12:22:11;13.10;;;7.20;;
40599;SDS011;26309;50.924;4.754;2022-12-07T12:27:21;10.33;;;6.50;;
40599;SDS011;26309;50.924;4.754;2022-12-07T12:30:07;14.73;;;6.97;;
40599;SDS011;26309;50.924;4.754;2022-12-07T12:32:49;12.20;;;7.03;;
40599;SDS011;26309;50.924;4.754;2022-12-07T12:35:33;13.97;;;6.63;;
40599;SDS011;26309;50.924;4.754;2022-12-07T12:40:45;13.60;;;7.47;;
40599;SDS011;26309;50.924;4.754;2022-12-07T12:51:51;9.20;;;5.40;;
40599;SDS011;26309;50.924;4.754;2022-12-07T13:12:58;9.40;;;4.43;;
40599;SDS011;26309;50.924;4.754;2022-12-07T13:23:38;8.17;;;4.47;;
40599;SDS011;26309;50.924;4.754;2022-12-07T13:28:48;9.67;;;3.57;;
40599;SDS011;26309;50.924;4.754;2022-12-07T13:33:45;8.77;;;3.90;;
40599;SDS011;26309;50.924;4.754;2022-12-07T13:36:14;6.17;;;3.10;;
40599;SDS011;26309;50.924;4.754;2022-12-07T13:38:49;7.83;;;2.97;;
40599;SDS011;26309;50.924;4.754;2022-12-07T13:41:24;4.27;;;2.47;;
40599;SDS011;26309;50.924;4.754;2022-12-07T13:43:53;6.90;;;2.70;;
40599;SDS011;26309;50.924;4.754;2022-12-07T13:46:35;8.30;;;2.90;;
40599;SDS011;26309;50.924;4.754;2022-12-07T13:52:23;8.03;;;3.20;;
40599;SDS011;26309;50.924;4.754;2022-12-07T13:55:00;4.43;;;3.13;;
40599;SDS011;26309;50.924;4.754;2022-12-07T13:57:30;12.87;;;3.93;;
40599;SDS011;26309;50.924;4.754;2022-12-07T14:00:03;12.23;;;3.97;;
40599;SDS011;26309;50.924;4.754;2022-12-07T14:02:33;8.07;;;3.87;;
40599;SDS011;26309;50.924;4.754;2022-12-07T14:05:08;9.13;;;4.00;;
40599;SDS011;26309;50.924;4.754;2022-12-07T14:07:48;9.03;;;4.37;;
40599;SDS011;26309;50.924;4.754;2022-12-07T14:10:26;8.37;;;4.23;;
40599;SDS011;26309;50.924;4.754;2022-12-07T14:12:54;11.90;;;4.50;;
40599;SDS011;26309;50.924;4.754;2022-12-07T14:15:21;7.40;;;3.70;;
40599;SDS011;26309;50.924;4.754;2022-12-07T14:17:54;11.50;;;4.60;;
40599;SDS011;26309;50.924;4.754;2022-12-07T14:20:31;13.53;;;4.60;;
40599;SDS011;26309;50.924;4.754;2022-12-07T14:23:05;10.20;;;4.10;;
40599;SDS011;26309;50.924;4.754;2022-12-07T14:25:49;7.40;;;4.40;;
40599;SDS011;26309;50.924;4.754;2022-12-07T14:28:27;8.93;;;4.03;;
40599;SDS011;26309;50.924;4.754;2022-12-07T14:30:54;8.50;;;3.37;;
40599;SDS011;26309;50.924;4.754;2022-12-07T14:33:21;5.83;;;3.73;;
40599;SDS011;26309;50.924;4.754;2022-12-07T14:35:49;9.57;;;3.37;;
40599;SDS011;26309;50.924;4.754;2022-12-07T14:38:20;6.57;;;3.47;;
40599;SDS011;26309;50.924;4.754;2022-12-07T14:40:47;7.40;;;3.80;;
40599;SDS011;26309;50.924;4.754;2022-12-07T14:43:14;8.20;;;4.10;;
40599;SDS011;26309;50.924;4.754;2022-12-07T14:45:41;10.80;;;3.80;;
40599;SDS011;26309;50.924;4.754;2022-12-07T14:48:12;7.33;;;3.53;;
40599;SDS011;26309;50.924;4.754;2022-12-07T14:50:40;4.87;;;3.33;;
40599;SDS011;26309;50.924;4.754;2022-12-07T14:53:11;7.87;;;2.30;;
40599;SDS011;26309;50.924;4.754;2022-12-07T14:55:40;3.03;;;2.40;;
40599;SDS011;26309;50.924;4.754;2022-12-07T14:58:07;7.10;;;2.80;;
40599;SDS011;26309;50.924;4.754;2022-12-07T15:00:39;5.10;;;2.20;;
40599;SDS011;26309;50.924;4.754;2022-12-07T15:03:05;3.97;;;2.57;;
40599;SDS011;26309;50.924;4.754;2022-12-07T15:05:30;7.40;;;2.57;;
40599;SDS011;26309;50.924;4.754;2022-12-07T15:07:58;4.23;;;2.63;;
40599;SDS011;26309;50.924;4.754;2022-12-07T15:10:24;4.13;;;3.10;;
40599;SDS011;26309;50.924;4.754;2022-12-07T15:13:00;4.30;;;3.10;;
40599;SDS011;26309;50.924;4.754;2022-12-07T15:15:49;5.67;;;3.37;;
40599;SDS011;26309;50.924;4.754;2022-12-07T15:18:17;7.67;;;3.67;;
40599;SDS011;26309;50.924;4.754;2022-12-07T15:20:45;4.03;;;3.10;;
40599;SDS011;26309;50.924;4.754;2022-12-07T15:23:11;7.80;;;4.00;;
40599;SDS011;26309;50.924;4.754;2022-12-07T15:25:41;7.20;;;4.37;;
40599;SDS011;26309;50.924;4.754;2022-12-07T15:28:08;7.87;;;5.27;;
40599;SDS011;26309;50.924;4.754;2022-12-07T15:30:33;8.10;;;6.10;;
40599;SDS011;26309;50.924;4.754;2022-12-07T15:33:01;8.63;;;5.37;;
40599;SDS011;26309;50.924;4.754;2022-12-07T15:35:27;7.83;;;6.03;;
40599;SDS011;26309;50.924;4.754;2022-12-07T15:37:55;8.93;;;6.27;;
40599;SDS011;26309;50.924;4.754;2022-12-07T15:40:21;10.50;;;6.80;;
40599;SDS011;26309;50.924;4.754;2022-12-07T15:42:47;9.27;;;6.10;;
40599;SDS011;26309;50.924;4.754;2022-12-07T15:45:13;12.27;;;6.03;;
40599;SDS011;26309;50.924;4.754;2022-12-07T15:47:40;11.90;;;6.60;;
40599;SDS011;26309;50.924;4.754;2022-12-07T15:50:08;10.83;;;6.47;;
40599;SDS011;26309;50.924;4.754;2022-12-07T15:52:37;10.50;;;6.93;;
40599;SDS011;26309;50.924;4.754;2022-12-07T15:55:03;6.90;;;6.23;;
40599;SDS011;26309;50.924;4.754;2022-12-07T15:57:30;12.33;;;6.87;;
40599;SDS011;26309;50.924;4.754;2022-12-07T15:59:57;8.40;;;6.50;;
40599;SDS011;26309;50.924;4.754;2022-12-07T16:02:23;9.93;;;6.87;;
40599;SDS011;26309;50.924;4.754;2022-12-07T16:04:51;11.77;;;7.57;;
40599;SDS011;26309;50.924;4.754;2022-12-07T16:07:17;11.77;;;6.97;;
40599;SDS011;26309;50.924;4.754;2022-12-07T16:09:43;8.73;;;7.17;;
40599;SDS011;26309;50.924;4.754;2022-12-07T16:12:11;8.87;;;7.43;;
40599;SDS011;26309;50.924;4.754;2022-12-07T16:14:39;13.33;;;8.13;;
40599;SDS011;26309;50.924;4.754;2022-12-07T16:17:06;13.20;;;8.70;;
40599;SDS011;26309;50.924;4.754;2022-12-07T16:19:32;12.80;;;8.03;;
40599;SDS011;26309;50.924;4.754;2022-12-07T16:21:59;12.17;;;8.23;;
40599;SDS011;26309;50.924;4.754;2022-12-07T16:24:26;16.33;;;8.40;;
40599;SDS011;26309;50.924;4.754;2022-12-07T16:26:52;12.30;;;9.00;;
40599;SDS011;26309;50.924;4.754;2022-12-07T16:29:18;11.67;;;8.73;;
40599;SDS011;26309;50.924;4.754;2022-12-07T16:31:45;14.53;;;8.00;;
40599;SDS011;26309;50.924;4.754;2022-12-07T16:34:12;11.07;;;9.00;;
40599;SDS011;26309;50.924;4.754;2022-12-07T16:36:39;11.07;;;9.20;;
40599;SDS011;26309;50.924;4.754;2022-12-07T16:39:08;9.43;;;8.37;;
40599;SDS011;26309;50.924;4.754;2022-12-07T16:41:34;13.30;;;9.10;;
40599;SDS011;26309;50.924;4.754;2022-12-07T16:44:04;11.03;;;9.07;;
40599;SDS011;26309;50.924;4.754;2022-12-07T16:46:32;11.70;;;9.33;;
40599;SDS011;26309;50.924;4.754;2022-12-07T16:48:59;18.70;;;8.53;;
40599;SDS011;26309;50.924;4.754;2022-12-07T16:51:25;12.17;;;9.97;;
40599;SDS011;26309;50.924;4.754;2022-12-07T16:53:51;16.40;;;9.57;;
40599;SDS011;26309;50.924;4.754;2022-12-07T16:56:18;15.07;;;9.00;;
40599;SDS011;26309;50.924;4.754;2022-12-07T16:58:44;11.30;;;8.93;;
40599;SDS011;26309;50.924;4.754;2022-12-07T17:01:12;11.30;;;8.33;;
40599;SDS011;26309;50.924;4.754;2022-12-07T17:03:40;10.77;;;7.13;;
40599;SDS011;26309;50.924;4.754;2022-12-07T17:06:25;16.60;;;8.17;;
40599;SDS011;26309;50.924;4.754;2022-12-07T17:08:54;13.93;;;7.40;;
40599;SDS011;26309;50.924;4.754;2022-12-07T17:11:26;14.90;;;8.00;;
40599;SDS011;26309;50.924;4.754;2022-12-07T17:13:53;13.50;;;9.50;;
40599;SDS011;26309;50.924;4.754;2022-12-07T17:16:38;11.83;;;7.90;;
40599;SDS011;26309;50.924;4.754;2022-12-07T17:19:05;13.00;;;7.23;;
40599;SDS011;26309;50.924;4.754;2022-12-07T17:21:35;20.33;;;8.53;;
40599;SDS011;26309;50.924;4.754;2022-12-07T17:24:03;12.27;;;8.10;;
40599;SDS011;26309;50.924;4.754;2022-12-07T17:26:30;11.37;;;7.07;;
40599;SDS011;26309;50.924;4.754;2022-12-07T17:28:57;13.43;;;7.13;;